createdAt,value
2019-02-14T00:00:59.506Z,98.60
2019-02-14T00:03:30.956Z,98.50
2019-02-14T00:06:02.423Z,98.30
2019-02-14T00:08:33.800Z,98.30
2019-02-14T00:11:05.221Z,98.40
2019-02-14T00:13:39.555Z,98.60
2019-02-14T00:16:10.937Z,98.40
2019-02-14T00:18:42.269Z,98.70
2019-02-14T00:21:13.567Z,98.50
2019-02-14T00:23:45.013Z,98.90
2019-02-14T00:26:16.538Z,99.00
2019-02-14T00:28:47.954Z,99.20
2019-02-14T00:31:19.462Z,99.20
2019-02-14T00:33:50.857Z,99.10
2019-02-14T00:36:22.222Z,99.10
2019-02-14T00:38:58.392Z,99.20
2019-02-14T00:41:29.880Z,99.20
2019-02-14T00:44:01.321Z,99.10
2019-02-14T00:46:32.771Z,99.00
2019-02-14T00:49:04.254Z,99.20
2019-02-14T00:51:35.650Z,99.40
2019-02-14T00:54:07.130Z,99.30
2019-02-14T00:56:38.506Z,99.30
2019-02-14T00:59:10.894Z,99.60
2019-02-14T01:01:42.309Z,99.50
2019-02-14T01:04:13.709Z,99.60
2019-02-14T01:06:46.261Z,99.50
2019-02-14T01:09:17.861Z,99.60
2019-02-14T01:11:49.226Z,99.50
2019-02-14T01:14:24.206Z,99.50
2019-02-14T01:16:55.617Z,99.30
2019-02-14T01:19:27.174Z,99.00
2019-02-14T01:21:58.689Z,99.30
2019-02-14T01:24:30.064Z,99.10
2019-02-14T01:27:01.394Z,99.10
2019-02-14T01:29:32.788Z,98.70
2019-02-14T01:32:04.237Z,98.80
2019-02-14T01:34:35.666Z,99.10
2019-02-14T01:37:07.419Z,98.90
2019-02-14T01:39:39.008Z,99.10
2019-02-14T01:42:10.399Z,99.00
2019-02-14T01:44:42.040Z,99.00
2019-02-14T01:47:14.431Z,99.20
2019-02-14T01:49:45.836Z,99.70
2019-02-14T01:52:17.129Z,99.70
2019-02-14T01:54:48.501Z,99.60
2019-02-14T01:57:21.705Z,99.80
2019-02-14T01:59:53.053Z,99.70
2019-02-14T02:02:24.425Z,99.70
2019-02-14T02:04:56.896Z,99.70
2019-02-14T02:07:29.114Z,99.30
2019-02-14T02:10:00.532Z,99.00
2019-02-14T02:12:33.207Z,98.90
2019-02-14T02:15:06.599Z,98.80
2019-02-14T02:17:38.547Z,98.80
2019-02-14T02:20:11.679Z,99.00
2019-02-14T02:22:45.040Z,98.80
2019-02-14T02:25:17.897Z,98.90
2019-02-14T02:27:49.222Z,99.30
2019-02-14T02:30:22.469Z,99.60
2019-02-14T02:32:53.913Z,99.60
2019-02-14T02:35:25.234Z,99.70
2019-02-14T02:37:56.684Z,99.90
2019-02-14T02:40:28.235Z,99.90
2019-02-14T02:42:59.570Z,99.90
2019-02-14T02:45:30.883Z,99.90
2019-02-14T02:48:02.361Z,99.90
2019-02-14T02:50:33.728Z,99.90
2019-02-14T02:53:05.286Z,99.90
2019-02-14T02:55:36.687Z,99.90
2019-02-14T02:58:08.128Z,99.90
2019-02-14T03:00:39.643Z,99.90
2019-02-14T03:03:11.078Z,99.90
2019-02-14T03:05:42.546Z,99.90
2019-02-14T03:08:18.235Z,99.90
2019-02-14T03:10:54.141Z,99.90
2019-02-14T03:13:26.131Z,99.90
2019-02-14T03:16:02.617Z,99.90
2019-02-14T03:18:34.130Z,99.90
2019-02-14T03:21:05.933Z,99.90
2019-02-14T03:23:38.963Z,99.90
2019-02-14T03:26:10.773Z,99.80
2019-02-14T03:29:49.885Z,99.60
2019-02-14T03:31:45.362Z,99.70
2019-02-14T03:34:28.989Z,99.90
2019-02-14T03:37:06.584Z,99.90
2019-02-14T03:42:31.191Z,99.90
2019-02-14T03:45:28.899Z,99.90
2019-02-14T03:48:14.997Z,99.60
2019-02-14T03:50:54.336Z,99.80
2019-02-14T03:53:35.511Z,99.90
2019-02-14T03:56:20.946Z,99.90
2019-02-14T03:58:55.519Z,99.40
2019-02-14T04:01:33.951Z,99.30
2019-02-14T04:04:21.991Z,99.60
2019-02-14T04:06:58.070Z,99.70
2019-02-14T04:09:38.848Z,99.30
2019-02-14T04:12:10.462Z,99.30
2019-02-14T04:14:54.421Z,99.40
2019-02-14T04:17:26.031Z,99.60
2019-02-14T04:19:57.319Z,99.80
2019-02-14T04:22:28.795Z,99.80
2019-02-14T04:25:00.306Z,99.60
2019-02-14T04:27:50.514Z,99.50
2019-02-14T04:30:32.826Z,99.00
2019-02-14T04:33:15.551Z,99.10
2019-02-14T04:36:00.930Z,99.30
2019-02-14T04:38:35.021Z,99.30
2019-02-14T04:41:13.120Z,98.80
2019-02-14T04:44:05.764Z,98.90
2019-02-14T04:46:54.985Z,99.30
2019-02-14T04:49:31.499Z,99.20
2019-02-14T04:52:16.355Z,99.50
2019-02-14T04:54:48.391Z,99.80
2019-02-14T04:57:24.624Z,99.80
2019-02-14T05:00:11.089Z,99.90
2019-02-14T05:02:50.502Z,99.90
2019-02-14T05:05:23.884Z,99.50
2019-02-14T05:07:55.352Z,99.90
2019-02-14T05:10:29.730Z,99.90
2019-02-14T05:13:03.453Z,99.90
2019-02-14T05:15:40.562Z,99.80
2019-02-14T05:18:12.140Z,99.40
2019-02-14T05:20:46.977Z,99.00
2019-02-14T05:23:20.894Z,98.70
2019-02-14T05:26:06.085Z,98.70
2019-02-14T05:28:34.268Z,98.70
2019-02-14T05:31:05.901Z,99.20
2019-02-14T05:33:37.405Z,99.30
2019-02-14T05:36:09.079Z,99.50
2019-02-14T05:38:41.088Z,99.70
2019-02-14T05:41:12.755Z,99.90
2019-02-14T05:43:44.671Z,99.90
2019-02-14T05:46:16.318Z,99.90
2019-02-14T05:48:48.401Z,99.90
2019-02-14T05:51:19.774Z,99.90
2019-02-14T05:53:51.124Z,99.90
2019-02-14T05:56:22.545Z,99.90
2019-02-14T05:58:55.737Z,99.90
2019-02-14T06:01:27.408Z,99.90
2019-02-14T06:03:58.947Z,99.90
2019-02-14T06:06:30.572Z,99.90
2019-02-14T06:09:02.115Z,99.90
2019-02-14T06:11:35.394Z,99.90
2019-02-14T06:14:07.517Z,99.90
2019-02-14T06:16:39.071Z,99.90
2019-02-14T06:19:10.640Z,99.90
2019-02-14T06:21:42.113Z,99.90
2019-02-14T06:24:13.607Z,99.90
2019-02-14T06:26:44.922Z,99.90
2019-02-14T06:29:16.416Z,99.90
2019-02-14T06:31:47.760Z,99.90
2019-02-14T06:34:19.245Z,99.90
2019-02-14T06:36:50.554Z,99.90
2019-02-14T06:39:21.958Z,99.90
2019-02-14T06:41:53.363Z,99.90
2019-02-14T06:44:24.719Z,99.90
2019-02-14T06:46:56.215Z,99.90
2019-02-14T06:49:27.651Z,99.90
2019-02-14T06:51:59.014Z,99.90
2019-02-14T06:54:30.541Z,99.90
2019-02-14T06:57:01.948Z,99.90
2019-02-14T06:59:33.490Z,99.90
2019-02-14T07:02:04.942Z,99.90
2019-02-14T07:04:36.779Z,99.90
2019-02-14T07:07:08.193Z,99.90
2019-02-14T07:09:39.601Z,99.90
2019-02-14T07:12:11.881Z,99.90
2019-02-14T07:14:43.303Z,99.90
2019-02-14T07:17:14.818Z,99.90
2019-02-14T07:19:46.352Z,99.90
2019-02-14T07:22:17.770Z,99.90
2019-02-14T07:24:49.186Z,99.90
2019-02-14T07:27:20.717Z,99.90
2019-02-14T07:29:52.108Z,99.90
2019-02-14T07:32:23.483Z,99.90
2019-02-14T07:34:55.113Z,99.90
2019-02-14T07:37:27.164Z,99.90
2019-02-14T07:39:58.811Z,99.90
2019-02-14T07:42:30.132Z,99.90
2019-02-14T07:45:03.570Z,99.90
2019-02-14T07:47:34.678Z,99.90
2019-02-14T07:50:09.328Z,99.90
2019-02-14T07:52:40.794Z,99.90
2019-02-14T07:55:14.629Z,99.90
2019-02-14T07:57:46.059Z,99.90
2019-02-14T08:00:19.345Z,99.90
2019-02-14T08:02:50.779Z,99.90
2019-02-14T08:05:22.134Z,99.90
2019-02-14T08:07:53.554Z,99.90
2019-02-14T08:10:25.105Z,99.90
2019-02-14T08:12:56.616Z,99.90
2019-02-14T08:15:28.113Z,99.90
2019-02-14T08:17:59.557Z,99.90
2019-02-14T08:20:30.983Z,99.90
2019-02-14T08:23:02.641Z,99.90
2019-02-14T08:25:34.123Z,99.90
2019-02-14T08:28:05.715Z,99.90
2019-02-14T08:30:37.255Z,99.90
2019-02-14T08:33:08.804Z,99.90
2019-02-14T08:35:40.106Z,99.90
2019-02-14T08:38:11.508Z,99.90
2019-02-14T08:40:42.915Z,99.90
2019-02-14T08:43:14.296Z,99.90
2019-02-14T08:45:45.696Z,99.90
2019-02-14T08:48:17.472Z,99.90
2019-02-14T08:50:48.945Z,99.90
2019-02-14T08:53:20.387Z,99.90
2019-02-14T08:55:51.912Z,99.90
2019-02-14T08:58:23.321Z,99.90
2019-02-14T09:00:54.813Z,99.90
2019-02-14T09:03:26.313Z,99.90
2019-02-14T09:05:57.647Z,99.90
2019-02-14T09:08:29.032Z,99.90
2019-02-14T09:11:00.657Z,99.90
2019-02-14T09:13:32.131Z,99.90
2019-02-14T09:16:03.496Z,99.90
2019-02-14T09:18:34.947Z,99.90
2019-02-14T09:21:06.625Z,99.90
2019-02-14T09:23:38.202Z,99.90
2019-02-14T09:26:09.609Z,99.80
2019-02-14T09:28:41.211Z,99.50
2019-02-14T09:31:12.531Z,99.60
2019-02-14T09:33:44.155Z,99.40
2019-02-14T09:36:15.589Z,99.70
2019-02-14T09:38:47.040Z,99.90
2019-02-14T09:41:17.693Z,99.00
2019-02-14T09:43:49.243Z,99.20
2019-02-14T09:46:20.908Z,99.30
2019-02-14T09:48:52.505Z,98.90
2019-02-14T09:51:24.243Z,99.30
2019-02-14T09:53:55.865Z,99.00
2019-02-14T09:56:27.473Z,99.20
2019-02-14T09:58:59.333Z,99.20
2019-02-14T10:01:31.135Z,98.70
2019-02-14T10:04:02.876Z,98.30
2019-02-14T10:06:37.042Z,98.00
2019-02-14T10:09:09.315Z,97.40
2019-02-14T10:11:46.638Z,97.80
2019-02-14T10:14:18.449Z,97.80
2019-02-14T10:16:55.111Z,97.20
2019-02-14T10:19:31.965Z,97.00
2019-02-14T10:22:03.761Z,97.30
2019-02-14T10:24:37.119Z,97.20
2019-02-14T10:27:15.046Z,96.80
2019-02-14T10:29:49.986Z,96.70
2019-02-14T10:32:21.741Z,95.90
2019-02-14T10:34:57.087Z,95.50
2019-02-14T10:37:31.940Z,95.20
2019-02-14T10:40:06.083Z,95.70
2019-02-14T10:42:43.996Z,95.10
2019-02-14T10:45:35.124Z,95.30
2019-02-14T10:48:06.968Z,95.20
2019-02-14T10:50:38.759Z,95.00
2019-02-14T10:53:12.217Z,94.10
2019-02-14T10:55:48.155Z,93.50
2019-02-14T10:58:19.917Z,95.10
2019-02-14T11:00:51.720Z,94.70
2019-02-14T11:03:23.416Z,95.60
2019-02-14T11:05:55.200Z,95.10
2019-02-14T11:08:31.589Z,94.90
2019-02-14T11:11:00.455Z,95.40
2019-02-14T11:13:32.281Z,95.70
2019-02-14T11:16:06.163Z,95.70
2019-02-14T11:18:44.362Z,95.10
2019-02-14T11:21:14.670Z,95.00
2019-02-14T11:23:49.278Z,94.90
2019-02-14T11:26:25.521Z,95.30
2019-02-14T11:29:06.348Z,94.40
2019-02-14T11:31:55.953Z,94.40
2019-02-14T11:34:15.103Z,94.10
2019-02-14T11:36:52.111Z,94.10
2019-02-14T11:39:25.555Z,94.70
2019-02-14T11:42:00.719Z,93.60
2019-02-14T11:44:40.033Z,93.90
2019-02-14T11:47:14.061Z,93.60
2019-02-14T11:49:54.574Z,94.00
2019-02-14T11:52:33.003Z,93.10
2019-02-14T11:55:12.986Z,92.90
2019-02-14T11:57:56.873Z,92.70
2019-02-14T12:00:31.225Z,93.10
2019-02-14T12:03:06.392Z,92.60
2019-02-14T12:05:48.455Z,92.00
2019-02-14T12:08:23.619Z,92.20
2019-02-14T12:11:04.169Z,91.80
2019-02-14T12:13:57.065Z,91.60
2019-02-14T12:16:31.566Z,91.30
2019-02-14T12:19:21.835Z,92.60
2019-02-14T12:21:52.851Z,90.60
2019-02-14T12:24:30.095Z,91.50
2019-02-14T12:27:03.438Z,90.80
2019-02-14T12:29:39.617Z,91.10
2019-02-14T12:32:17.717Z,91.40
2019-02-14T12:35:07.129Z,91.40
2019-02-14T12:37:43.752Z,91.10
2019-02-14T12:40:19.325Z,89.70
2019-02-14T12:42:52.253Z,89.30
2019-02-14T12:45:31.513Z,89.80
2019-02-14T12:48:15.664Z,90.80
2019-02-14T12:50:57.277Z,89.30
2019-02-14T12:53:38.706Z,89.80
2019-02-14T12:56:10.259Z,88.10
2019-02-14T12:58:56.903Z,90.80
2019-02-14T13:01:28.698Z,88.50
2019-02-14T13:04:14.874Z,88.50
2019-02-14T13:06:46.931Z,88.30
2019-02-14T13:09:24.888Z,86.80
2019-02-14T13:11:58.229Z,87.00
2019-02-14T13:14:34.537Z,86.70
2019-02-14T13:17:06.521Z,87.90
2019-02-14T13:19:38.093Z,86.90
2019-02-14T13:22:09.853Z,88.60
2019-02-14T13:24:44.184Z,89.00
2019-02-14T13:27:15.965Z,86.30
2019-02-14T13:29:47.806Z,84.40
2019-02-14T13:32:19.434Z,85.70
2019-02-14T13:34:51.095Z,84.70
2019-02-14T13:37:22.695Z,84.20
2019-02-14T13:39:54.203Z,82.40
2019-02-14T13:42:26.129Z,82.10
2019-02-14T13:48:13.119Z,81.90
2019-02-14T13:50:48.614Z,82.00
2019-02-14T13:53:22.752Z,83.20
2019-02-14T13:55:54.119Z,80.50
2019-02-14T13:58:25.454Z,76.50
2019-02-14T14:00:56.940Z,77.20
2019-02-14T14:03:28.298Z,77.30
2019-02-14T14:05:59.691Z,78.20
2019-02-14T14:08:33.155Z,80.30
2019-02-14T14:11:04.774Z,79.90
2019-02-14T14:13:36.392Z,80.50
2019-02-14T14:16:18.573Z,83.70
2019-02-14T14:18:50.021Z,82.70
2019-02-14T14:21:21.435Z,81.20
2019-02-14T14:23:54.664Z,78.40
2019-02-14T14:26:26.036Z,79.70
2019-02-14T14:28:57.482Z,81.60
2019-02-14T14:31:29.010Z,77.40
2019-02-14T14:34:00.361Z,79.50
2019-02-14T14:36:32.750Z,79.50
2019-02-14T14:39:04.988Z,80.70
2019-02-14T14:41:38.165Z,77.20
2019-02-14T14:44:30.406Z,75.80
2019-02-14T14:47:01.812Z,75.60
2019-02-14T14:49:33.097Z,75.30
2019-02-14T14:52:04.652Z,77.90
2019-02-14T14:54:35.940Z,79.00
2019-02-14T14:57:07.362Z,79.90
2019-02-14T14:59:38.723Z,78.40
2019-02-14T15:02:10.411Z,80.50
2019-02-14T15:04:41.786Z,80.80
2019-02-14T15:07:13.280Z,83.10
2019-02-14T15:09:46.492Z,81.70
2019-02-14T15:12:17.843Z,81.80
2019-02-14T15:14:52.289Z,83.90
2019-02-14T15:17:23.683Z,83.60
2019-02-14T15:19:54.982Z,85.40
2019-02-14T15:22:27.576Z,84.30
2019-02-14T15:24:58.985Z,84.20
2019-02-14T15:27:30.398Z,84.70
2019-02-14T15:30:01.851Z,85.30
2019-02-14T15:32:35.421Z,83.40
2019-02-14T15:35:09.182Z,83.60
2019-02-14T15:37:42.069Z,82.20
2019-02-14T15:40:13.764Z,82.20
2019-02-14T15:42:45.149Z,84.00
2019-02-14T15:45:16.530Z,85.80
2019-02-14T15:47:48.928Z,86.70
2019-02-14T15:50:20.227Z,86.00
2019-02-14T15:52:52.386Z,86.70
2019-02-14T15:55:24.823Z,86.40
2019-02-14T15:57:58.086Z,86.90
2019-02-14T16:00:30.745Z,87.30
2019-02-14T16:03:02.832Z,87.30
2019-02-14T16:05:34.281Z,87.10
2019-02-14T16:08:05.624Z,87.60
2019-02-14T16:10:37.992Z,89.00
2019-02-14T16:13:09.927Z,90.10
2019-02-14T16:15:41.634Z,89.90
2019-02-14T16:18:13.114Z,90.30
2019-02-14T16:20:44.436Z,90.10
2019-02-14T16:23:15.840Z,89.20
2019-02-14T16:25:50.029Z,89.40
2019-02-14T16:28:21.841Z,89.70
2019-02-14T16:30:56.300Z,90.20
2019-02-14T16:33:26.412Z,90.30
2019-02-14T16:35:57.935Z,90.50
2019-02-14T16:38:33.572Z,90.60
2019-02-14T16:41:05.991Z,90.50
2019-02-14T16:43:37.650Z,90.70
2019-02-14T16:46:09.319Z,90.90
2019-02-14T16:48:40.703Z,90.90
2019-02-14T16:51:11.988Z,91.00
2019-02-14T16:53:43.361Z,91.40
2019-02-14T16:56:14.681Z,91.50
2019-02-14T16:58:46.438Z,91.90
2019-02-14T17:01:17.791Z,92.10
2019-02-14T17:03:49.282Z,92.20
2019-02-14T17:06:20.705Z,92.30
2019-02-14T17:08:53.058Z,92.30
2019-02-14T17:11:24.403Z,92.50
2019-02-14T17:13:57.059Z,92.60
2019-02-14T17:16:28.649Z,92.70
2019-02-14T17:19:00.029Z,92.70
2019-02-14T17:21:31.479Z,92.90
2019-02-14T17:24:02.803Z,93.00
2019-02-14T17:26:34.239Z,93.10
2019-02-14T17:29:05.734Z,93.40
2019-02-14T17:31:37.101Z,93.20
2019-02-14T17:34:08.424Z,93.40
2019-02-14T17:36:41.878Z,93.50
2019-02-14T17:39:13.082Z,93.60
2019-02-14T17:41:45.262Z,93.80
2019-02-14T17:44:16.835Z,93.90
2019-02-14T17:46:48.109Z,93.90
2019-02-14T17:49:19.427Z,94.00
2019-02-14T17:51:50.817Z,94.10
2019-02-14T17:54:22.266Z,94.10
2019-02-14T17:56:53.628Z,94.10
2019-02-14T17:59:25.196Z,94.20
2019-02-14T18:01:59.046Z,94.20
2019-02-14T18:04:30.526Z,94.30
2019-02-14T18:07:01.894Z,94.30
2019-02-14T18:09:33.345Z,94.10
2019-02-14T18:12:04.905Z,94.20
2019-02-14T18:14:39.744Z,94.20
2019-02-14T18:17:11.132Z,94.30
2019-02-14T18:19:44.126Z,94.30
2019-02-14T18:22:15.598Z,94.40
2019-02-14T18:24:48.665Z,94.20
2019-02-14T18:27:20.791Z,94.30
2019-02-14T18:29:52.429Z,94.30
2019-02-14T18:32:23.958Z,94.20
2019-02-14T18:34:55.428Z,94.20
2019-02-14T18:37:28.500Z,94.20
2019-02-14T18:40:13.165Z,94.10
2019-02-14T18:42:47.616Z,94.20
2019-02-14T18:45:19.087Z,94.10
2019-02-14T18:47:50.745Z,94.00
2019-02-14T18:50:22.144Z,94.00
2019-02-14T18:52:54.905Z,94.20
2019-02-14T18:55:26.383Z,94.40
2019-02-14T18:57:57.903Z,94.50
2019-02-14T19:00:29.819Z,94.60
2019-02-14T21:12:20.843Z,95.60
2019-02-14T21:18:09.417Z,95.90
2019-02-14T21:21:22.116Z,95.80
2019-02-14T21:25:15.937Z,95.70
2019-02-14T22:17:22.578Z,96.40
2019-02-14T22:17:44.427Z,96.60
2019-02-14T22:21:59.090Z,96.80
2019-02-14T22:31:12.906Z,96.70
2019-02-14T22:33:10.383Z,96.70
2019-02-14T22:39:26.377Z,96.90
2019-02-14T22:42:28.058Z,97.20
2019-02-14T22:45:27.233Z,96.70
2019-02-14T22:49:19.798Z,96.90
2019-02-14T22:54:45.362Z,97.00
2019-02-14T22:57:40.832Z,97.50
2019-02-14T23:00:55.722Z,97.70
2019-02-14T23:09:38.632Z,97.30
2019-02-14T23:18:49.464Z,97.20
2019-02-14T23:22:08.054Z,97.50
2019-02-14T23:24:38.936Z,97.60
2019-02-14T23:27:34.645Z,97.70
2019-02-14T23:30:24.311Z,97.50
2019-02-14T23:36:07.235Z,97.60
2019-02-14T23:38:56.933Z,97.70
2019-02-14T23:41:46.055Z,98.00
2019-02-14T23:44:17.165Z,98.10
2019-02-14T23:47:09.620Z,97.80
2019-02-14T23:52:59.873Z,97.70
2019-02-14T23:58:53.088Z,98.10
